sensor_id;sensor_type;location;lat;lon;timestamp;P1;durP1;ratioP1;P2;durP2;ratioP2
66143;SDS011;52947;50.842;6.084;2023-06-10T00:01:56;10.48;;;6.03;;
66143;SDS011;52947;50.842;6.084;2023-06-10T00:04:26;14.05;;;5.75;;
66143;SDS011;52947;50.842;6.084;2023-06-10T00:06:54;12.45;;;6.40;;
66143;SDS011;52947;50.842;6.084;2023-06-10T00:09:24;7.60;;;5.50;;
66143;SDS011;52947;50.842;6.084;2023-06-10T00:11:53;10.57;;;6.13;;
66143;SDS011;52947;50.842;6.084;2023-06-10T00:14:21;10.85;;;6.07;;
66143;SDS011;52947;50.842;6.084;2023-06-10T00:16:48;10.23;;;6.18;;
66143;SDS011;52947;50.842;6.084;2023-06-10T00:19:18;11.48;;;6.13;;
66143;SDS011;52947;50.842;6.084;2023-06-10T00:21:52;8.50;;;6.03;;
66143;SDS011;52947;50.842;6.084;2023-06-10T00:24:19;10.45;;;6.03;;
66143;SDS011;52947;50.842;6.084;2023-06-10T00:26:49;9.15;;;5.80;;
66143;SDS011;52947;50.842;6.084;2023-06-10T00:29:17;13.35;;;6.28;;
66143;SDS011;52947;50.842;6.084;2023-06-10T00:31:45;9.65;;;5.82;;
66143;SDS011;52947;50.842;6.084;2023-06-10T00:34:13;7.95;;;5.65;;
66143;SDS011;52947;50.842;6.084;2023-06-10T00:36:41;8.48;;;5.93;;
66143;SDS011;52947;50.842;6.084;2023-06-10T00:39:09;7.82;;;5.32;;
66143;SDS011;52947;50.842;6.084;2023-06-10T00:41:37;8.45;;;5.38;;
66143;SDS011;52947;50.842;6.084;2023-06-10T00:44:07;7.40;;;5.20;;
66143;SDS011;52947;50.842;6.084;2023-06-10T00:46:35;8.98;;;5.00;;
66143;SDS011;52947;50.842;6.084;2023-06-10T00:49:04;8.35;;;5.38;;
66143;SDS011;52947;50.842;6.084;2023-06-10T00:51:32;8.25;;;5.82;;
66143;SDS011;52947;50.842;6.084;2023-06-10T00:54:00;9.15;;;6.13;;
66143;SDS011;52947;50.842;6.084;2023-06-10T00:56:28;7.30;;;5.37;;
66143;SDS011;52947;50.842;6.084;2023-06-10T00:58:57;7.70;;;5.22;;
66143;SDS011;52947;50.842;6.084;2023-06-10T01:01:28;9.38;;;5.30;;
66143;SDS011;52947;50.842;6.084;2023-06-10T01:03:56;8.98;;;5.78;;
66143;SDS011;52947;50.842;6.084;2023-06-10T01:06:27;9.85;;;5.47;;
66143;SDS011;52947;50.842;6.084;2023-06-10T01:09:06;7.50;;;5.45;;
66143;SDS011;52947;50.842;6.084;2023-06-10T01:11:43;8.15;;;5.07;;
66143;SDS011;52947;50.842;6.084;2023-06-10T01:14:15;8.32;;;5.70;;
66143;SDS011;52947;50.842;6.084;2023-06-10T01:19:13;9.07;;;5.70;;
66143;SDS011;52947;50.842;6.084;2023-06-10T01:21:45;9.10;;;6.03;;
66143;SDS011;52947;50.842;6.084;2023-06-10T01:24:17;11.85;;;5.93;;
66143;SDS011;52947;50.842;6.084;2023-06-10T01:26:46;9.95;;;7.25;;
66143;SDS011;52947;50.842;6.084;2023-06-10T01:29:19;9.82;;;7.78;;
66143;SDS011;52947;50.842;6.084;2023-06-10T01:31:52;12.13;;;7.78;;
66143;SDS011;52947;50.842;6.084;2023-06-10T01:34:26;14.88;;;7.50;;
66143;SDS011;52947;50.842;6.084;2023-06-10T01:36:56;11.98;;;7.30;;
66143;SDS011;52947;50.842;6.084;2023-06-10T01:39:25;11.93;;;7.38;;
66143;SDS011;52947;50.842;6.084;2023-06-10T01:41:54;10.52;;;7.20;;
66143;SDS011;52947;50.842;6.084;2023-06-10T01:44:23;9.75;;;7.47;;
66143;SDS011;52947;50.842;6.084;2023-06-10T01:46:51;12.85;;;7.53;;
66143;SDS011;52947;50.842;6.084;2023-06-10T01:49:20;10.30;;;7.90;;
66143;SDS011;52947;50.842;6.084;2023-06-10T01:51:48;10.73;;;7.90;;
66143;SDS011;52947;50.842;6.084;2023-06-10T01:54:17;9.57;;;7.15;;
66143;SDS011;52947;50.842;6.084;2023-06-10T01:56:45;12.00;;;7.07;;
66143;SDS011;52947;50.842;6.084;2023-06-10T01:59:14;11.40;;;7.03;;
66143;SDS011;52947;50.842;6.084;2023-06-10T02:01:42;9.60;;;7.20;;
66143;SDS011;52947;50.842;6.084;2023-06-10T02:04:10;9.82;;;6.95;;
66143;SDS011;52947;50.842;6.084;2023-06-10T02:06:38;8.63;;;7.07;;
66143;SDS011;52947;50.842;6.084;2023-06-10T02:09:06;15.88;;;7.25;;
66143;SDS011;52947;50.842;6.084;2023-06-10T02:11:35;13.02;;;5.45;;
66143;SDS011;52947;50.842;6.084;2023-06-10T02:16:31;12.63;;;7.03;;
66143;SDS011;52947;50.842;6.084;2023-06-10T02:18:58;9.30;;;5.90;;
66143;SDS011;52947;50.842;6.084;2023-06-10T02:21:27;12.13;;;6.97;;
66143;SDS011;52947;50.842;6.084;2023-06-10T02:23:54;10.52;;;6.88;;
66143;SDS011;52947;50.842;6.084;2023-06-10T02:26:22;10.40;;;6.63;;
66143;SDS011;52947;50.842;6.084;2023-06-10T02:28:54;11.23;;;6.80;;
66143;SDS011;52947;50.842;6.084;2023-06-10T02:31:22;10.52;;;7.28;;
66143;SDS011;52947;50.842;6.084;2023-06-10T02:33:51;9.35;;;6.47;;
66143;SDS011;52947;50.842;6.084;2023-06-10T02:36:19;11.75;;;6.80;;
66143;SDS011;52947;50.842;6.084;2023-06-10T02:38:48;9.57;;;6.55;;
66143;SDS011;52947;50.842;6.084;2023-06-10T02:41:17;12.23;;;7.90;;
66143;SDS011;52947;50.842;6.084;2023-06-10T02:43:45;10.23;;;6.47;;
66143;SDS011;52947;50.842;6.084;2023-06-10T02:46:15;9.77;;;6.90;;
66143;SDS011;52947;50.842;6.084;2023-06-10T02:48:45;10.98;;;7.13;;
66143;SDS011;52947;50.842;6.084;2023-06-10T02:51:18;10.88;;;7.40;;
66143;SDS011;52947;50.842;6.084;2023-06-10T02:53:50;11.75;;;7.00;;
66143;SDS011;52947;50.842;6.084;2023-06-10T02:56:18;10.18;;;7.20;;
66143;SDS011;52947;50.842;6.084;2023-06-10T02:58:46;10.60;;;6.70;;
66143;SDS011;52947;50.842;6.084;2023-06-10T03:01:17;9.13;;;6.55;;
66143;SDS011;52947;50.842;6.084;2023-06-10T03:03:54;11.83;;;7.33;;
66143;SDS011;52947;50.842;6.084;2023-06-10T03:06:22;11.45;;;6.50;;
66143;SDS011;52947;50.842;6.084;2023-06-10T03:08:59;8.95;;;6.82;;
66143;SDS011;52947;50.842;6.084;2023-06-10T03:11:27;11.53;;;6.63;;
66143;SDS011;52947;50.842;6.084;2023-06-10T03:13:55;8.65;;;6.70;;
66143;SDS011;52947;50.842;6.084;2023-06-10T03:16:27;10.40;;;7.57;;
66143;SDS011;52947;50.842;6.084;2023-06-10T03:18:57;13.02;;;7.18;;
66143;SDS011;52947;50.842;6.084;2023-06-10T03:21:25;9.15;;;7.35;;
66143;SDS011;52947;50.842;6.084;2023-06-10T03:23:55;12.57;;;6.35;;
66143;SDS011;52947;50.842;6.084;2023-06-10T03:26:23;8.48;;;7.30;;
66143;SDS011;52947;50.842;6.084;2023-06-10T03:28:52;9.98;;;6.75;;
66143;SDS011;52947;50.842;6.084;2023-06-10T03:31:22;9.07;;;6.57;;
66143;SDS011;52947;50.842;6.084;2023-06-10T03:33:54;8.30;;;6.43;;
66143;SDS011;52947;50.842;6.084;2023-06-10T03:36:22;10.63;;;6.35;;
66143;SDS011;52947;50.842;6.084;2023-06-10T03:38:50;9.57;;;6.05;;
66143;SDS011;52947;50.842;6.084;2023-06-10T03:41:19;9.60;;;6.28;;
66143;SDS011;52947;50.842;6.084;2023-06-10T03:43:49;8.95;;;6.53;;
66143;SDS011;52947;50.842;6.084;2023-06-10T03:46:17;7.83;;;6.07;;
66143;SDS011;52947;50.842;6.084;2023-06-10T03:48:45;10.30;;;6.72;;
66143;SDS011;52947;50.842;6.084;2023-06-10T03:51:16;9.85;;;6.45;;
66143;SDS011;52947;50.842;6.084;2023-06-10T03:53:44;8.48;;;6.40;;
66143;SDS011;52947;50.842;6.084;2023-06-10T03:56:12;10.02;;;6.53;;
66143;SDS011;52947;50.842;6.084;2023-06-10T03:58:40;7.88;;;6.15;;
66143;SDS011;52947;50.842;6.084;2023-06-10T04:01:12;10.55;;;6.57;;
66143;SDS011;52947;50.842;6.084;2023-06-10T04:03:40;11.10;;;7.50;;
66143;SDS011;52947;50.842;6.084;2023-06-10T04:06:10;10.75;;;7.05;;
66143;SDS011;52947;50.842;6.084;2023-06-10T04:08:40;9.73;;;6.32;;
66143;SDS011;52947;50.842;6.084;2023-06-10T04:13:35;9.65;;;6.60;;
66143;SDS011;52947;50.842;6.084;2023-06-10T04:16:05;7.75;;;6.57;;
66143;SDS011;52947;50.842;6.084;2023-06-10T04:18:33;9.15;;;6.38;;
66143;SDS011;52947;50.842;6.084;2023-06-10T04:21:05;10.90;;;6.82;;
66143;SDS011;52947;50.842;6.084;2023-06-10T04:23:34;8.10;;;6.20;;
66143;SDS011;52947;50.842;6.084;2023-06-10T04:26:04;13.00;;;7.07;;
66143;SDS011;52947;50.842;6.084;2023-06-10T04:28:33;12.70;;;6.82;;
66143;SDS011;52947;50.842;6.084;2023-06-10T04:33:30;10.97;;;6.37;;
66143;SDS011;52947;50.842;6.084;2023-06-10T04:36:00;9.68;;;6.68;;
66143;SDS011;52947;50.842;6.084;2023-06-10T04:38:30;8.07;;;5.88;;
66143;SDS011;52947;50.842;6.084;2023-06-10T04:40:59;13.32;;;6.90;;
66143;SDS011;52947;50.842;6.084;2023-06-10T04:43:31;11.48;;;6.53;;
66143;SDS011;52947;50.842;6.084;2023-06-10T04:46:00;10.63;;;5.97;;
66143;SDS011;52947;50.842;6.084;2023-06-10T04:48:28;8.73;;;6.55;;
66143;SDS011;52947;50.842;6.084;2023-06-10T04:50:57;8.25;;;6.57;;
66143;SDS011;52947;50.842;6.084;2023-06-10T04:53:26;11.52;;;6.93;;
66143;SDS011;52947;50.842;6.084;2023-06-10T04:55:55;13.20;;;7.18;;
66143;SDS011;52947;50.842;6.084;2023-06-10T04:58:24;9.95;;;7.05;;
66143;SDS011;52947;50.842;6.084;2023-06-10T05:00:53;10.60;;;6.63;;
66143;SDS011;52947;50.842;6.084;2023-06-10T05:03:21;9.30;;;6.15;;
66143;SDS011;52947;50.842;6.084;2023-06-10T05:05:49;9.35;;;7.03;;
66143;SDS011;52947;50.842;6.084;2023-06-10T05:08:17;10.63;;;7.20;;
66143;SDS011;52947;50.842;6.084;2023-06-10T05:10:45;10.15;;;7.00;;
66143;SDS011;52947;50.842;6.084;2023-06-10T05:13:13;11.07;;;6.82;;
66143;SDS011;52947;50.842;6.084;2023-06-10T05:15:41;11.75;;;7.40;;
66143;SDS011;52947;50.842;6.084;2023-06-10T05:18:12;11.68;;;6.38;;
66143;SDS011;52947;50.842;6.084;2023-06-10T05:20:40;9.63;;;6.43;;
66143;SDS011;52947;50.842;6.084;2023-06-10T05:23:07;9.05;;;6.60;;
66143;SDS011;52947;50.842;6.084;2023-06-10T05:25:35;10.07;;;6.32;;
66143;SDS011;52947;50.842;6.084;2023-06-10T05:28:03;9.10;;;6.28;;
66143;SDS011;52947;50.842;6.084;2023-06-10T05:30:32;8.70;;;5.60;;
66143;SDS011;52947;50.842;6.084;2023-06-10T05:33:00;9.80;;;7.10;;
66143;SDS011;52947;50.842;6.084;2023-06-10T05:35:30;10.73;;;6.90;;
66143;SDS011;52947;50.842;6.084;2023-06-10T05:37:58;9.90;;;6.22;;
66143;SDS011;52947;50.842;6.084;2023-06-10T05:40:29;11.05;;;6.45;;
66143;SDS011;52947;50.842;6.084;2023-06-10T05:42:57;13.88;;;6.18;;
66143;SDS011;52947;50.842;6.084;2023-06-10T05:45:24;10.37;;;6.03;;
66143;SDS011;52947;50.842;6.084;2023-06-10T05:47:52;9.90;;;6.13;;
66143;SDS011;52947;50.842;6.084;2023-06-10T05:50:21;10.07;;;6.47;;
66143;SDS011;52947;50.842;6.084;2023-06-10T05:52:50;8.60;;;6.45;;
66143;SDS011;52947;50.842;6.084;2023-06-10T05:55:20;8.82;;;6.82;;
66143;SDS011;52947;50.842;6.084;2023-06-10T05:57:48;11.23;;;6.03;;
66143;SDS011;52947;50.842;6.084;2023-06-10T06:00:26;11.77;;;6.35;;
66143;SDS011;52947;50.842;6.084;2023-06-10T06:02:54;9.48;;;6.32;;
66143;SDS011;52947;50.842;6.084;2023-06-10T06:05:23;9.13;;;6.10;;
66143;SDS011;52947;50.842;6.084;2023-06-10T06:07:53;8.45;;;5.85;;
66143;SDS011;52947;50.842;6.084;2023-06-10T06:10:21;10.05;;;6.18;;
66143;SDS011;52947;50.842;6.084;2023-06-10T06:12:49;8.35;;;6.57;;
66143;SDS011;52947;50.842;6.084;2023-06-10T06:15:16;9.30;;;6.80;;
66143;SDS011;52947;50.842;6.084;2023-06-10T06:17:44;12.50;;;6.57;;
66143;SDS011;52947;50.842;6.084;2023-06-10T06:20:12;9.30;;;6.13;;
66143;SDS011;52947;50.842;6.084;2023-06-10T06:22:44;9.73;;;6.22;;
66143;SDS011;52947;50.842;6.084;2023-06-10T06:25:13;11.60;;;6.10;;
66143;SDS011;52947;50.842;6.084;2023-06-10T06:27:42;8.15;;;5.90;;
66143;SDS011;52947;50.842;6.084;2023-06-10T06:30:10;11.45;;;5.88;;
66143;SDS011;52947;50.842;6.084;2023-06-10T06:32:38;8.95;;;5.82;;
66143;SDS011;52947;50.842;6.084;2023-06-10T06:35:07;7.93;;;5.88;;
66143;SDS011;52947;50.842;6.084;2023-06-10T06:37:36;10.57;;;5.78;;
66143;SDS011;52947;50.842;6.084;2023-06-10T06:40:16;10.02;;;5.95;;
66143;SDS011;52947;50.842;6.084;2023-06-10T06:42:44;7.93;;;6.00;;
66143;SDS011;52947;50.842;6.084;2023-06-10T06:45:42;6.72;;;5.45;;
66143;SDS011;52947;50.842;6.084;2023-06-10T06:48:10;11.60;;;6.65;;
66143;SDS011;52947;50.842;6.084;2023-06-10T06:53:08;9.50;;;6.18;;
66143;SDS011;52947;50.842;6.084;2023-06-10T06:55:37;11.60;;;6.15;;
66143;SDS011;52947;50.842;6.084;2023-06-10T06:58:05;8.48;;;5.75;;
66143;SDS011;52947;50.842;6.084;2023-06-10T07:00:33;7.57;;;5.38;;
66143;SDS011;52947;50.842;6.084;2023-06-10T07:03:01;12.82;;;6.00;;
66143;SDS011;52947;50.842;6.084;2023-06-10T07:05:29;8.63;;;5.57;;
66143;SDS011;52947;50.842;6.084;2023-06-10T07:07:57;8.43;;;6.00;;
66143;SDS011;52947;50.842;6.084;2023-06-10T07:10:25;7.85;;;5.22;;
66143;SDS011;52947;50.842;6.084;2023-06-10T07:15:23;9.23;;;5.05;;
66143;SDS011;52947;50.842;6.084;2023-06-10T07:17:50;13.90;;;6.30;;
66143;SDS011;52947;50.842;6.084;2023-06-10T07:20:18;16.83;;;5.63;;
66143;SDS011;52947;50.842;6.084;2023-06-10T07:22:46;9.80;;;5.38;;
66143;SDS011;52947;50.842;6.084;2023-06-10T07:25:14;12.15;;;5.57;;
66143;SDS011;52947;50.842;6.084;2023-06-10T07:30:12;12.45;;;5.40;;
66143;SDS011;52947;50.842;6.084;2023-06-10T07:32:40;11.60;;;5.85;;
66143;SDS011;52947;50.842;6.084;2023-06-10T07:35:10;11.55;;;6.35;;
66143;SDS011;52947;50.842;6.084;2023-06-10T07:37:38;13.32;;;6.05;;
66143;SDS011;52947;50.842;6.084;2023-06-10T07:40:06;14.30;;;5.97;;
66143;SDS011;52947;50.842;6.084;2023-06-10T07:42:35;18.08;;;6.20;;
66143;SDS011;52947;50.842;6.084;2023-06-10T07:45:04;10.90;;;5.32;;
66143;SDS011;52947;50.842;6.084;2023-06-10T07:47:35;12.13;;;5.82;;
66143;SDS011;52947;50.842;6.084;2023-06-10T07:50:03;9.73;;;5.63;;
66143;SDS011;52947;50.842;6.084;2023-06-10T07:52:31;14.50;;;6.40;;
66143;SDS011;52947;50.842;6.084;2023-06-10T07:54:59;8.43;;;5.47;;
66143;SDS011;52947;50.842;6.084;2023-06-10T07:57:27;9.70;;;6.18;;
66143;SDS011;52947;50.842;6.084;2023-06-10T07:59:55;8.85;;;5.53;;
66143;SDS011;52947;50.842;6.084;2023-06-10T08:02:24;8.55;;;5.75;;
66143;SDS011;52947;50.842;6.084;2023-06-10T08:07:21;11.38;;;5.32;;
66143;SDS011;52947;50.842;6.084;2023-06-10T08:09:49;11.07;;;5.47;;
66143;SDS011;52947;50.842;6.084;2023-06-10T08:12:17;9.27;;;5.22;;
66143;SDS011;52947;50.842;6.084;2023-06-10T08:14:45;7.93;;;4.68;;
66143;SDS011;52947;50.842;6.084;2023-06-10T08:17:13;13.68;;;5.40;;
66143;SDS011;52947;50.842;6.084;2023-06-10T08:19:41;8.00;;;5.80;;
66143;SDS011;52947;50.842;6.084;2023-06-10T08:22:10;8.32;;;5.28;;
66143;SDS011;52947;50.842;6.084;2023-06-10T08:24:38;17.20;;;5.88;;
66143;SDS011;52947;50.842;6.084;2023-06-10T08:27:06;9.32;;;5.80;;
66143;SDS011;52947;50.842;6.084;2023-06-10T08:29:34;10.15;;;5.40;;
66143;SDS011;52947;50.842;6.084;2023-06-10T08:32:02;9.88;;;5.63;;
66143;SDS011;52947;50.842;6.084;2023-06-10T08:34:33;15.73;;;6.20;;
66143;SDS011;52947;50.842;6.084;2023-06-10T08:37:01;10.50;;;5.82;;
66143;SDS011;52947;50.842;6.084;2023-06-10T08:42:00;11.32;;;5.55;;
66143;SDS011;52947;50.842;6.084;2023-06-10T08:44:36;11.48;;;5.38;;
66143;SDS011;52947;50.842;6.084;2023-06-10T08:47:06;7.95;;;5.60;;
66143;SDS011;52947;50.842;6.084;2023-06-10T08:49:41;7.50;;;5.38;;
66143;SDS011;52947;50.842;6.084;2023-06-10T08:52:12;7.38;;;5.10;;
66143;SDS011;52947;50.842;6.084;2023-06-10T08:54:45;11.00;;;5.57;;
66143;SDS011;52947;50.842;6.084;2023-06-10T08:57:16;9.02;;;5.05;;
66143;SDS011;52947;50.842;6.084;2023-06-10T08:59:46;8.27;;;5.15;;
66143;SDS011;52947;50.842;6.084;2023-06-10T09:02:15;7.97;;;5.28;;
66143;SDS011;52947;50.842;6.084;2023-06-10T09:04:46;9.30;;;5.32;;
66143;SDS011;52947;50.842;6.084;2023-06-10T09:07:15;8.20;;;4.88;;
66143;SDS011;52947;50.842;6.084;2023-06-10T09:09:44;7.40;;;5.10;;
66143;SDS011;52947;50.842;6.084;2023-06-10T09:12:13;8.95;;;5.40;;
66143;SDS011;52947;50.842;6.084;2023-06-10T09:14:41;11.07;;;5.40;;
66143;SDS011;52947;50.842;6.084;2023-06-10T09:17:09;10.50;;;5.63;;
66143;SDS011;52947;50.842;6.084;2023-06-10T09:19:37;17.60;;;5.35;;
66143;SDS011;52947;50.842;6.084;2023-06-10T09:22:07;8.48;;;5.43;;
66143;SDS011;52947;50.842;6.084;2023-06-10T09:24:35;8.50;;;5.65;;
66143;SDS011;52947;50.842;6.084;2023-06-10T09:27:05;7.97;;;5.38;;
66143;SDS011;52947;50.842;6.084;2023-06-10T09:29:45;7.68;;;5.13;;
66143;SDS011;52947;50.842;6.084;2023-06-10T09:32:14;11.15;;;5.03;;
66143;SDS011;52947;50.842;6.084;2023-06-10T09:34:44;9.13;;;5.00;;
66143;SDS011;52947;50.842;6.084;2023-06-10T09:37:13;9.52;;;5.13;;
66143;SDS011;52947;50.842;6.084;2023-06-10T09:40:00;11.30;;;5.15;;
66143;SDS011;52947;50.842;6.084;2023-06-10T09:42:32;12.38;;;5.03;;
66143;SDS011;52947;50.842;6.084;2023-06-10T09:45:01;9.02;;;5.60;;
66143;SDS011;52947;50.842;6.084;2023-06-10T09:47:29;12.70;;;5.00;;
66143;SDS011;52947;50.842;6.084;2023-06-10T09:49:58;10.23;;;5.25;;
66143;SDS011;52947;50.842;6.084;2023-06-10T09:52:27;17.80;;;6.03;;
66143;SDS011;52947;50.842;6.084;2023-06-10T09:54:59;8.23;;;4.82;;
66143;SDS011;52947;50.842;6.084;2023-06-10T09:57:31;7.85;;;5.03;;
66143;SDS011;52947;50.842;6.084;2023-06-10T10:00:04;11.13;;;5.05;;
66143;SDS011;52947;50.842;6.084;2023-06-10T10:02:43;7.93;;;4.80;;
66143;SDS011;52947;50.842;6.084;2023-06-10T10:05:13;12.30;;;5.35;;
66143;SDS011;52947;50.842;6.084;2023-06-10T10:07:42;15.50;;;5.22;;
66143;SDS011;52947;50.842;6.084;2023-06-10T10:12:40;7.07;;;5.13;;
66143;SDS011;52947;50.842;6.084;2023-06-10T10:15:10;11.25;;;5.60;;
66143;SDS011;52947;50.842;6.084;2023-06-10T10:17:39;10.85;;;5.22;;
66143;SDS011;52947;50.842;6.084;2023-06-10T10:20:11;10.23;;;5.10;;
66143;SDS011;52947;50.842;6.084;2023-06-10T10:22:43;8.85;;;5.32;;
66143;SDS011;52947;50.842;6.084;2023-06-10T10:25:12;12.30;;;5.90;;
66143;SDS011;52947;50.842;6.084;2023-06-10T10:27:47;9.45;;;5.53;;
66143;SDS011;52947;50.842;6.084;2023-06-10T10:30:19;13.68;;;5.53;;
66143;SDS011;52947;50.842;6.084;2023-06-10T10:32:52;11.15;;;5.85;;
66143;SDS011;52947;50.842;6.084;2023-06-10T10:35:24;12.18;;;5.45;;
66143;SDS011;52947;50.842;6.084;2023-06-10T10:40:21;11.13;;;5.80;;
66143;SDS011;52947;50.842;6.084;2023-06-10T10:42:52;16.08;;;5.78;;
66143;SDS011;52947;50.842;6.084;2023-06-10T10:45:21;9.77;;;5.25;;
66143;SDS011;52947;50.842;6.084;2023-06-10T10:50:19;11.60;;;5.70;;
66143;SDS011;52947;50.842;6.084;2023-06-10T10:52:52;9.57;;;5.70;;
66143;SDS011;52947;50.842;6.084;2023-06-10T10:55:23;10.57;;;5.55;;
66143;SDS011;52947;50.842;6.084;2023-06-10T10:57:57;9.48;;;5.10;;
66143;SDS011;52947;50.842;6.084;2023-06-10T11:00:29;11.15;;;5.97;;
66143;SDS011;52947;50.842;6.084;2023-06-10T11:02:58;9.23;;;5.32;;
66143;SDS011;52947;50.842;6.084;2023-06-10T11:05:37;8.57;;;5.55;;
66143;SDS011;52947;50.842;6.084;2023-06-10T11:08:07;13.00;;;5.57;;
66143;SDS011;52947;50.842;6.084;2023-06-10T11:10:36;10.30;;;5.63;;
66143;SDS011;52947;50.842;6.084;2023-06-10T11:13:07;8.10;;;5.25;;
66143;SDS011;52947;50.842;6.084;2023-06-10T11:15:39;13.75;;;6.40;;
66143;SDS011;52947;50.842;6.084;2023-06-10T11:18:13;7.43;;;5.65;;
66143;SDS011;52947;50.842;6.084;2023-06-10T11:20:46;7.68;;;5.47;;
66143;SDS011;52947;50.842;6.084;2023-06-10T11:23:29;9.95;;;5.30;;
66143;SDS011;52947;50.842;6.084;2023-06-10T11:26:11;8.27;;;5.20;;
66143;SDS011;52947;50.842;6.084;2023-06-10T11:28:42;9.48;;;5.95;;
66143;SDS011;52947;50.842;6.084;2023-06-10T11:33:59;17.27;;;5.38;;
66143;SDS011;52947;50.842;6.084;2023-06-10T11:36:29;12.02;;;6.00;;
66143;SDS011;52947;50.842;6.084;2023-06-10T11:41:26;7.93;;;5.38;;
66143;SDS011;52947;50.842;6.084;2023-06-10T11:43:57;10.15;;;5.60;;
66143;SDS011;52947;50.842;6.084;2023-06-10T11:46:29;6.78;;;4.97;;
66143;SDS011;52947;50.842;6.084;2023-06-10T11:48:57;8.75;;;5.55;;
66143;SDS011;52947;50.842;6.084;2023-06-10T11:51:26;12.40;;;5.05;;
66143;SDS011;52947;50.842;6.084;2023-06-10T11:53:55;7.38;;;5.40;;
66143;SDS011;52947;50.842;6.084;2023-06-10T11:56:23;8.93;;;5.63;;
66143;SDS011;52947;50.842;6.084;2023-06-10T11:58:53;10.27;;;5.78;;
66143;SDS011;52947;50.842;6.084;2023-06-10T12:01:23;6.85;;;4.90;;
66143;SDS011;52947;50.842;6.084;2023-06-10T12:03:59;9.10;;;5.07;;
66143;SDS011;52947;50.842;6.084;2023-06-10T12:06:37;9.77;;;5.07;;
66143;SDS011;52947;50.842;6.084;2023-06-10T12:09:05;12.27;;;5.20;;
66143;SDS011;52947;50.842;6.084;2023-06-10T12:11:50;10.63;;;5.10;;
66143;SDS011;52947;50.842;6.084;2023-06-10T12:17:21;6.65;;;4.55;;
66143;SDS011;52947;50.842;6.084;2023-06-10T12:19:50;9.93;;;4.65;;
66143;SDS011;52947;50.842;6.084;2023-06-10T12:22:18;6.95;;;4.80;;
66143;SDS011;52947;50.842;6.084;2023-06-10T12:24:57;7.90;;;5.10;;
66143;SDS011;52947;50.842;6.084;2023-06-10T12:27:27;8.73;;;4.28;;
66143;SDS011;52947;50.842;6.084;2023-06-10T12:29:56;8.90;;;5.00;;
66143;SDS011;52947;50.842;6.084;2023-06-10T12:32:39;7.88;;;4.60;;
66143;SDS011;52947;50.842;6.084;2023-06-10T12:35:09;7.65;;;4.80;;
66143;SDS011;52947;50.842;6.084;2023-06-10T12:37:38;6.78;;;5.20;;
66143;SDS011;52947;50.842;6.084;2023-06-10T12:40:09;6.03;;;4.65;;
66143;SDS011;52947;50.842;6.084;2023-06-10T12:42:38;6.05;;;4.60;;
66143;SDS011;52947;50.842;6.084;2023-06-10T12:45:06;8.23;;;4.78;;
66143;SDS011;52947;50.842;6.084;2023-06-10T12:47:38;6.60;;;4.97;;
66143;SDS011;52947;50.842;6.084;2023-06-10T12:50:06;8.15;;;4.63;;
66143;SDS011;52947;50.842;6.084;2023-06-10T12:52:35;8.80;;;4.65;;
66143;SDS011;52947;50.842;6.084;2023-06-10T12:55:03;7.97;;;4.50;;
66143;SDS011;52947;50.842;6.084;2023-06-10T12:57:32;5.80;;;4.50;;
66143;SDS011;52947;50.842;6.084;2023-06-10T13:00:00;10.60;;;5.07;;
66143;SDS011;52947;50.842;6.084;2023-06-10T13:02:31;5.13;;;4.28;;
66143;SDS011;52947;50.842;6.084;2023-06-10T13:05:00;5.45;;;4.50;;
66143;SDS011;52947;50.842;6.084;2023-06-10T13:07:29;7.40;;;4.53;;
66143;SDS011;52947;50.842;6.084;2023-06-10T13:09:57;12.00;;;5.07;;
66143;SDS011;52947;50.842;6.084;2023-06-10T13:12:25;7.47;;;4.93;;
66143;SDS011;52947;50.842;6.084;2023-06-10T13:15:14;9.50;;;4.90;;
66143;SDS011;52947;50.842;6.084;2023-06-10T13:17:43;10.85;;;4.75;;
66143;SDS011;52947;50.842;6.084;2023-06-10T13:20:13;7.00;;;4.45;;
66143;SDS011;52947;50.842;6.084;2023-06-10T13:22:41;9.68;;;4.95;;
66143;SDS011;52947;50.842;6.084;2023-06-10T13:25:10;5.38;;;4.40;;
66143;SDS011;52947;50.842;6.084;2023-06-10T13:30:07;6.95;;;4.47;;
66143;SDS011;52947;50.842;6.084;2023-06-10T13:32:37;8.90;;;4.88;;
66143;SDS011;52947;50.842;6.084;2023-06-10T13:37:36;10.68;;;4.30;;
66143;SDS011;52947;50.842;6.084;2023-06-10T13:40:04;9.05;;;4.32;;
66143;SDS011;52947;50.842;6.084;2023-06-10T13:42:34;5.63;;;4.40;;
66143;SDS011;52947;50.842;6.084;2023-06-10T13:45:04;10.85;;;5.43;;
66143;SDS011;52947;50.842;6.084;2023-06-10T13:47:33;6.88;;;4.93;;
66143;SDS011;52947;50.842;6.084;2023-06-10T13:50:01;11.48;;;5.60;;
66143;SDS011;52947;50.842;6.084;2023-06-10T13:52:29;8.15;;;5.80;;
66143;SDS011;52947;50.842;6.084;2023-06-10T13:54:58;7.00;;;5.80;;
66143;SDS011;52947;50.842;6.084;2023-06-10T13:57:26;9.43;;;5.80;;
66143;SDS011;52947;50.842;6.084;2023-06-10T13:59:54;8.18;;;5.43;;
66143;SDS011;52947;50.842;6.084;2023-06-10T14:02:22;9.52;;;5.35;;
66143;SDS011;52947;50.842;6.084;2023-06-10T14:04:51;7.85;;;5.45;;
66143;SDS011;52947;50.842;6.084;2023-06-10T14:07:19;9.38;;;5.40;;
66143;SDS011;52947;50.842;6.084;2023-06-10T14:09:46;7.43;;;5.30;;
66143;SDS011;52947;50.842;6.084;2023-06-10T14:12:19;8.00;;;4.85;;
66143;SDS011;52947;50.842;6.084;2023-06-10T14:14:46;13.27;;;5.45;;
66143;SDS011;52947;50.842;6.084;2023-06-10T14:17:14;10.38;;;6.00;;
66143;SDS011;52947;50.842;6.084;2023-06-10T14:19:42;8.50;;;4.88;;
66143;SDS011;52947;50.842;6.084;2023-06-10T14:22:10;6.15;;;5.40;;
66143;SDS011;52947;50.842;6.084;2023-06-10T14:24:38;6.93;;;5.23;;
66143;SDS011;52947;50.842;6.084;2023-06-10T14:27:06;7.60;;;4.97;;
66143;SDS011;52947;50.842;6.084;2023-06-10T14:29:35;11.32;;;5.18;;
66143;SDS011;52947;50.842;6.084;2023-06-10T14:32:04;6.35;;;5.10;;
66143;SDS011;52947;50.842;6.084;2023-06-10T14:34:35;8.27;;;4.78;;
66143;SDS011;52947;50.842;6.084;2023-06-10T14:37:03;10.32;;;5.40;;
66143;SDS011;52947;50.842;6.084;2023-06-10T14:39:33;6.35;;;5.28;;
66143;SDS011;52947;50.842;6.084;2023-06-10T14:42:01;8.02;;;5.35;;
66143;SDS011;52947;50.842;6.084;2023-06-10T14:44:30;8.32;;;5.47;;
66143;SDS011;52947;50.842;6.084;2023-06-10T14:46:59;9.25;;;5.13;;
66143;SDS011;52947;50.842;6.084;2023-06-10T14:49:27;9.40;;;5.25;;
66143;SDS011;52947;50.842;6.084;2023-06-10T14:51:55;7.70;;;4.73;;
66143;SDS011;52947;50.842;6.084;2023-06-10T14:54:22;8.37;;;4.90;;
66143;SDS011;52947;50.842;6.084;2023-06-10T14:56:50;7.18;;;5.20;;
66143;SDS011;52947;50.842;6.084;2023-06-10T14:59:18;7.17;;;5.10;;
66143;SDS011;52947;50.842;6.084;2023-06-10T15:01:46;9.70;;;4.43;;
66143;SDS011;52947;50.842;6.084;2023-06-10T15:04:15;9.50;;;4.72;;
66143;SDS011;52947;50.842;6.084;2023-06-10T15:06:48;11.98;;;4.65;;
66143;SDS011;52947;50.842;6.084;2023-06-10T15:09:16;7.15;;;4.75;;
66143;SDS011;52947;50.842;6.084;2023-06-10T15:11:44;12.88;;;4.82;;
66143;SDS011;52947;50.842;6.084;2023-06-10T15:14:12;6.47;;;5.07;;
66143;SDS011;52947;50.842;6.084;2023-06-10T15:16:40;11.40;;;5.03;;
66143;SDS011;52947;50.842;6.084;2023-06-10T15:19:08;7.07;;;5.22;;
66143;SDS011;52947;50.842;6.084;2023-06-10T15:21:37;6.70;;;4.72;;
66143;SDS011;52947;50.842;6.084;2023-06-10T15:24:06;6.88;;;5.35;;
66143;SDS011;52947;50.842;6.084;2023-06-10T15:26:34;7.70;;;5.07;;
66143;SDS011;52947;50.842;6.084;2023-06-10T15:29:02;11.30;;;5.15;;
66143;SDS011;52947;50.842;6.084;2023-06-10T15:31:31;9.13;;;4.78;;
66143;SDS011;52947;50.842;6.084;2023-06-10T15:33:59;9.85;;;5.43;;
66143;SDS011;52947;50.842;6.084;2023-06-10T15:36:27;7.65;;;4.75;;
66143;SDS011;52947;50.842;6.084;2023-06-10T15:38:57;11.13;;;4.70;;
66143;SDS011;52947;50.842;6.084;2023-06-10T15:41:28;9.35;;;4.47;;